sensor_id;sensor_type;location;lat;lon;timestamp;P1;durP1;ratioP1;P2;durP2;ratioP2
5555;SDS011;2801;50.972;7.856;2022-10-18T00:00:53;27.90;;;10.27;;
5555;SDS011;2801;50.972;7.856;2022-10-18T00:03:20;32.92;;;10.38;;
5555;SDS011;2801;50.972;7.856;2022-10-18T00:05:47;21.58;;;9.93;;
5555;SDS011;2801;50.972;7.856;2022-10-18T00:08:15;21.73;;;10.07;;
5555;SDS011;2801;50.972;7.856;2022-10-18T00:10:43;24.02;;;10.18;;
5555;SDS011;2801;50.972;7.856;2022-10-18T00:13:11;25.33;;;9.75;;
5555;SDS011;2801;50.972;7.856;2022-10-18T00:15:37;43.80;;;10.60;;
5555;SDS011;2801;50.972;7.856;2022-10-18T00:18:04;29.77;;;10.00;;
5555;SDS011;2801;50.972;7.856;2022-10-18T00:20:31;30.45;;;10.45;;
5555;SDS011;2801;50.972;7.856;2022-10-18T00:22:58;28.58;;;10.77;;
5555;SDS011;2801;50.972;7.856;2022-10-18T00:25:24;37.35;;;10.10;;
5555;SDS011;2801;50.972;7.856;2022-10-18T00:27:51;69.20;;;10.85;;
5555;SDS011;2801;50.972;7.856;2022-10-18T00:30:18;34.03;;;10.07;;
5555;SDS011;2801;50.972;7.856;2022-10-18T00:32:45;30.90;;;9.43;;
5555;SDS011;2801;50.972;7.856;2022-10-18T00:35:11;28.85;;;9.30;;
5555;SDS011;2801;50.972;7.856;2022-10-18T00:37:38;35.50;;;10.13;;
5555;SDS011;2801;50.972;7.856;2022-10-18T00:40:05;32.45;;;9.70;;
5555;SDS011;2801;50.972;7.856;2022-10-18T00:42:33;31.55;;;9.75;;
5555;SDS011;2801;50.972;7.856;2022-10-18T00:45:14;33.47;;;10.05;;
5555;SDS011;2801;50.972;7.856;2022-10-18T00:47:47;29.98;;;8.52;;
5555;SDS011;2801;50.972;7.856;2022-10-18T00:50:23;37.10;;;9.88;;
5555;SDS011;2801;50.972;7.856;2022-10-18T00:52:57;41.20;;;9.55;;
5555;SDS011;2801;50.972;7.856;2022-10-18T00:55:30;34.85;;;9.95;;
5555;SDS011;2801;50.972;7.856;2022-10-18T00:57:59;34.08;;;9.55;;
5555;SDS011;2801;50.972;7.856;2022-10-18T01:00:27;27.15;;;8.80;;
5555;SDS011;2801;50.972;7.856;2022-10-18T01:02:54;34.38;;;10.18;;
5555;SDS011;2801;50.972;7.856;2022-10-18T01:05:21;34.67;;;9.63;;
5555;SDS011;2801;50.972;7.856;2022-10-18T01:07:53;61.15;;;9.95;;
5555;SDS011;2801;50.972;7.856;2022-10-18T01:13:59;77.75;;;10.77;;
5555;SDS011;2801;50.972;7.856;2022-10-18T01:17:19;50.97;;;10.70;;
5555;SDS011;2801;50.972;7.856;2022-10-18T01:23:09;56.35;;;10.85;;
5555;SDS011;2801;50.972;7.856;2022-10-18T01:31:45;65.38;;;10.32;;
5555;SDS011;2801;50.972;7.856;2022-10-18T01:34:25;55.05;;;10.27;;
5555;SDS011;2801;50.972;7.856;2022-10-18T01:36:58;52.67;;;10.23;;
5555;SDS011;2801;50.972;7.856;2022-10-18T01:39:30;59.10;;;10.10;;
5555;SDS011;2801;50.972;7.856;2022-10-18T01:42:03;63.20;;;10.60;;
5555;SDS011;2801;50.972;7.856;2022-10-18T01:44:36;71.75;;;10.65;;
5555;SDS011;2801;50.972;7.856;2022-10-18T01:47:07;57.30;;;10.82;;
5555;SDS011;2801;50.972;7.856;2022-10-18T01:49:37;50.53;;;9.65;;
5555;SDS011;2801;50.972;7.856;2022-10-18T01:52:04;77.88;;;11.50;;
5555;SDS011;2801;50.972;7.856;2022-10-18T01:54:34;67.25;;;11.35;;
5555;SDS011;2801;50.972;7.856;2022-10-18T02:00:03;50.05;;;9.38;;
5555;SDS011;2801;50.972;7.856;2022-10-18T02:02:51;56.22;;;11.35;;
5555;SDS011;2801;50.972;7.856;2022-10-18T02:11:19;64.65;;;9.23;;
5555;SDS011;2801;50.972;7.856;2022-10-18T02:14:02;57.28;;;11.10;;
5555;SDS011;2801;50.972;7.856;2022-10-18T02:16:40;71.13;;;11.70;;
5555;SDS011;2801;50.972;7.856;2022-10-18T02:19:15;71.53;;;11.18;;
5555;SDS011;2801;50.972;7.856;2022-10-18T02:22:02;56.00;;;10.88;;
5555;SDS011;2801;50.972;7.856;2022-10-18T02:24:33;69.45;;;11.63;;
5555;SDS011;2801;50.972;7.856;2022-10-18T02:27:07;97.65;;;11.68;;
5555;SDS011;2801;50.972;7.856;2022-10-18T02:29:34;53.92;;;10.45;;
5555;SDS011;2801;50.972;7.856;2022-10-18T02:35:33;40.50;;;9.93;;
5555;SDS011;2801;50.972;7.856;2022-10-18T02:38:06;60.42;;;10.45;;
5555;SDS011;2801;50.972;7.856;2022-10-18T02:40:35;46.97;;;9.40;;
5555;SDS011;2801;50.972;7.856;2022-10-18T02:43:02;44.80;;;9.30;;
5555;SDS011;2801;50.972;7.856;2022-10-18T02:45:31;55.85;;;9.18;;
5555;SDS011;2801;50.972;7.856;2022-10-18T02:47:58;46.22;;;8.93;;
5555;SDS011;2801;50.972;7.856;2022-10-18T02:50:25;37.97;;;8.70;;
5555;SDS011;2801;50.972;7.856;2022-10-18T02:52:52;41.05;;;8.38;;
5555;SDS011;2801;50.972;7.856;2022-10-18T02:55:19;49.63;;;8.80;;
5555;SDS011;2801;50.972;7.856;2022-10-18T02:57:46;53.80;;;9.25;;
5555;SDS011;2801;50.972;7.856;2022-10-18T03:00:12;35.05;;;8.52;;
5555;SDS011;2801;50.972;7.856;2022-10-18T03:02:40;38.08;;;9.02;;
5555;SDS011;2801;50.972;7.856;2022-10-18T03:05:07;28.65;;;8.20;;
5555;SDS011;2801;50.972;7.856;2022-10-18T03:07:34;42.72;;;10.20;;
5555;SDS011;2801;50.972;7.856;2022-10-18T03:10:00;25.33;;;7.57;;
5555;SDS011;2801;50.972;7.856;2022-10-18T03:12:27;21.10;;;6.50;;
5555;SDS011;2801;50.972;7.856;2022-10-18T03:14:54;20.33;;;6.78;;
5555;SDS011;2801;50.972;7.856;2022-10-18T03:17:20;22.65;;;6.65;;
5555;SDS011;2801;50.972;7.856;2022-10-18T03:19:47;22.88;;;6.32;;
5555;SDS011;2801;50.972;7.856;2022-10-18T03:22:14;22.92;;;6.53;;
5555;SDS011;2801;50.972;7.856;2022-10-18T03:24:41;15.98;;;5.78;;
5555;SDS011;2801;50.972;7.856;2022-10-18T03:27:08;18.92;;;5.95;;
5555;SDS011;2801;50.972;7.856;2022-10-18T03:29:34;20.15;;;6.13;;
5555;SDS011;2801;50.972;7.856;2022-10-18T03:32:01;18.95;;;5.65;;
5555;SDS011;2801;50.972;7.856;2022-10-18T03:34:28;12.52;;;5.22;;
5555;SDS011;2801;50.972;7.856;2022-10-18T03:36:55;14.38;;;5.47;;
5555;SDS011;2801;50.972;7.856;2022-10-18T03:39:28;12.02;;;5.20;;
5555;SDS011;2801;50.972;7.856;2022-10-18T03:41:55;12.15;;;4.30;;
5555;SDS011;2801;50.972;7.856;2022-10-18T03:44:22;17.27;;;5.07;;
5555;SDS011;2801;50.972;7.856;2022-10-18T03:46:48;12.02;;;4.97;;
5555;SDS011;2801;50.972;7.856;2022-10-18T03:49:15;8.75;;;4.03;;
5555;SDS011;2801;50.972;7.856;2022-10-18T03:51:42;19.00;;;4.75;;
5555;SDS011;2801;50.972;7.856;2022-10-18T03:54:09;14.30;;;5.55;;
5555;SDS011;2801;50.972;7.856;2022-10-18T03:56:35;13.07;;;5.05;;
5555;SDS011;2801;50.972;7.856;2022-10-18T03:59:02;14.48;;;5.28;;
5555;SDS011;2801;50.972;7.856;2022-10-18T04:01:29;6.53;;;3.00;;
5555;SDS011;2801;50.972;7.856;2022-10-18T04:03:56;11.63;;;3.45;;
5555;SDS011;2801;50.972;7.856;2022-10-18T04:06:23;12.38;;;4.22;;
5555;SDS011;2801;50.972;7.856;2022-10-18T04:08:50;11.48;;;3.92;;
5555;SDS011;2801;50.972;7.856;2022-10-18T04:11:16;10.70;;;3.75;;
5555;SDS011;2801;50.972;7.856;2022-10-18T04:13:43;12.77;;;3.63;;
5555;SDS011;2801;50.972;7.856;2022-10-18T04:16:10;12.65;;;4.18;;
5555;SDS011;2801;50.972;7.856;2022-10-18T04:18:37;8.90;;;3.22;;
5555;SDS011;2801;50.972;7.856;2022-10-18T04:21:03;15.43;;;3.80;;
5555;SDS011;2801;50.972;7.856;2022-10-18T04:23:30;12.95;;;3.30;;
5555;SDS011;2801;50.972;7.856;2022-10-18T04:26:03;10.48;;;3.78;;
5555;SDS011;2801;50.972;7.856;2022-10-18T04:28:29;13.50;;;3.95;;
5555;SDS011;2801;50.972;7.856;2022-10-18T04:30:56;18.60;;;4.38;;
5555;SDS011;2801;50.972;7.856;2022-10-18T04:33:23;22.08;;;4.40;;
5555;SDS011;2801;50.972;7.856;2022-10-18T04:35:50;19.40;;;4.65;;
5555;SDS011;2801;50.972;7.856;2022-10-18T04:38:18;13.40;;;4.75;;
5555;SDS011;2801;50.972;7.856;2022-10-18T04:40:45;20.92;;;4.47;;
5555;SDS011;2801;50.972;7.856;2022-10-18T04:43:12;13.50;;;4.15;;
5555;SDS011;2801;50.972;7.856;2022-10-18T04:45:39;16.77;;;4.53;;
5555;SDS011;2801;50.972;7.856;2022-10-18T04:48:05;15.55;;;4.13;;
5555;SDS011;2801;50.972;7.856;2022-10-18T04:50:32;15.82;;;4.50;;
5555;SDS011;2801;50.972;7.856;2022-10-18T04:52:59;16.75;;;5.00;;
5555;SDS011;2801;50.972;7.856;2022-10-18T04:55:26;13.50;;;4.35;;
5555;SDS011;2801;50.972;7.856;2022-10-18T04:57:53;11.90;;;3.58;;
5555;SDS011;2801;50.972;7.856;2022-10-18T05:00:19;9.48;;;3.40;;
5555;SDS011;2801;50.972;7.856;2022-10-18T05:02:46;12.70;;;3.50;;
5555;SDS011;2801;50.972;7.856;2022-10-18T05:05:13;12.30;;;4.05;;
5555;SDS011;2801;50.972;7.856;2022-10-18T05:07:40;10.73;;;3.28;;
5555;SDS011;2801;50.972;7.856;2022-10-18T05:10:07;12.35;;;3.60;;
5555;SDS011;2801;50.972;7.856;2022-10-18T05:12:34;9.55;;;3.63;;
5555;SDS011;2801;50.972;7.856;2022-10-18T05:15:01;10.68;;;3.38;;
5555;SDS011;2801;50.972;7.856;2022-10-18T05:17:28;10.10;;;2.80;;
5555;SDS011;2801;50.972;7.856;2022-10-18T05:19:55;9.88;;;2.92;;
5555;SDS011;2801;50.972;7.856;2022-10-18T05:22:22;21.63;;;3.40;;
5555;SDS011;2801;50.972;7.856;2022-10-18T05:24:48;11.30;;;3.20;;
5555;SDS011;2801;50.972;7.856;2022-10-18T05:27:15;7.88;;;2.88;;
5555;SDS011;2801;50.972;7.856;2022-10-18T05:29:42;8.48;;;2.88;;
5555;SDS011;2801;50.972;7.856;2022-10-18T05:32:08;15.55;;;2.70;;
5555;SDS011;2801;50.972;7.856;2022-10-18T05:34:35;19.58;;;3.30;;
5555;SDS011;2801;50.972;7.856;2022-10-18T05:37:02;11.48;;;2.30;;
5555;SDS011;2801;50.972;7.856;2022-10-18T05:39:29;12.02;;;1.90;;
5555;SDS011;2801;50.972;7.856;2022-10-18T05:41:56;6.18;;;2.28;;
5555;SDS011;2801;50.972;7.856;2022-10-18T05:44:23;8.95;;;2.67;;
5555;SDS011;2801;50.972;7.856;2022-10-18T05:46:49;12.63;;;2.75;;
5555;SDS011;2801;50.972;7.856;2022-10-18T05:49:16;6.20;;;2.20;;
5555;SDS011;2801;50.972;7.856;2022-10-18T05:51:43;10.02;;;2.80;;
5555;SDS011;2801;50.972;7.856;2022-10-18T05:54:10;13.43;;;3.33;;
5555;SDS011;2801;50.972;7.856;2022-10-18T05:56:38;23.10;;;3.72;;
5555;SDS011;2801;50.972;7.856;2022-10-18T05:59:05;19.27;;;3.40;;
5555;SDS011;2801;50.972;7.856;2022-10-18T06:01:37;8.75;;;2.85;;
5555;SDS011;2801;50.972;7.856;2022-10-18T06:04:05;14.73;;;3.00;;
5555;SDS011;2801;50.972;7.856;2022-10-18T06:06:33;13.65;;;3.33;;
5555;SDS011;2801;50.972;7.856;2022-10-18T06:09:00;9.13;;;2.40;;
5555;SDS011;2801;50.972;7.856;2022-10-18T06:11:28;12.52;;;3.05;;
5555;SDS011;2801;50.972;7.856;2022-10-18T06:13:56;19.58;;;3.45;;
5555;SDS011;2801;50.972;7.856;2022-10-18T06:16:23;20.48;;;3.47;;
5555;SDS011;2801;50.972;7.856;2022-10-18T06:18:57;17.42;;;3.95;;
5555;SDS011;2801;50.972;7.856;2022-10-18T06:21:25;22.33;;;4.97;;
5555;SDS011;2801;50.972;7.856;2022-10-18T06:23:54;19.10;;;3.35;;
5555;SDS011;2801;50.972;7.856;2022-10-18T06:26:23;19.05;;;4.22;;
5555;SDS011;2801;50.972;7.856;2022-10-18T06:28:52;18.38;;;3.33;;
5555;SDS011;2801;50.972;7.856;2022-10-18T06:31:19;19.48;;;3.90;;
5555;SDS011;2801;50.972;7.856;2022-10-18T06:33:46;13.20;;;3.20;;
5555;SDS011;2801;50.972;7.856;2022-10-18T06:36:17;12.30;;;3.00;;
5555;SDS011;2801;50.972;7.856;2022-10-18T06:38:49;19.23;;;3.30;;
5555;SDS011;2801;50.972;7.856;2022-10-18T06:41:16;14.07;;;2.97;;
5555;SDS011;2801;50.972;7.856;2022-10-18T06:43:53;10.93;;;3.20;;
5555;SDS011;2801;50.972;7.856;2022-10-18T06:46:22;14.10;;;2.78;;
5555;SDS011;2801;50.972;7.856;2022-10-18T06:48:50;15.98;;;3.00;;
5555;SDS011;2801;50.972;7.856;2022-10-18T06:51:17;14.75;;;3.00;;
5555;SDS011;2801;50.972;7.856;2022-10-18T06:53:45;18.77;;;3.92;;
5555;SDS011;2801;50.972;7.856;2022-10-18T06:56:32;21.30;;;8.77;;
5555;SDS011;2801;50.972;7.856;2022-10-18T06:59:00;19.08;;;7.85;;
5555;SDS011;2801;50.972;7.856;2022-10-18T07:01:27;18.73;;;6.63;;
5555;SDS011;2801;50.972;7.856;2022-10-18T07:03:54;24.42;;;9.60;;
5555;SDS011;2801;50.972;7.856;2022-10-18T07:06:22;17.95;;;6.88;;
5555;SDS011;2801;50.972;7.856;2022-10-18T07:08:49;17.73;;;5.78;;
5555;SDS011;2801;50.972;7.856;2022-10-18T07:11:23;20.90;;;5.50;;
5555;SDS011;2801;50.972;7.856;2022-10-18T07:13:52;20.85;;;5.50;;
5555;SDS011;2801;50.972;7.856;2022-10-18T07:16:25;20.70;;;5.25;;
5555;SDS011;2801;50.972;7.856;2022-10-18T07:18:52;20.40;;;5.72;;
5555;SDS011;2801;50.972;7.856;2022-10-18T07:21:20;32.92;;;5.88;;
5555;SDS011;2801;50.972;7.856;2022-10-18T07:23:49;20.23;;;4.90;;
5555;SDS011;2801;50.972;7.856;2022-10-18T07:26:19;18.48;;;4.75;;
5555;SDS011;2801;50.972;7.856;2022-10-18T07:28:53;25.35;;;5.07;;
5555;SDS011;2801;50.972;7.856;2022-10-18T07:31:24;16.27;;;4.93;;
5555;SDS011;2801;50.972;7.856;2022-10-18T07:33:51;23.50;;;5.32;;
5555;SDS011;2801;50.972;7.856;2022-10-18T07:36:19;20.98;;;5.65;;
5555;SDS011;2801;50.972;7.856;2022-10-18T07:38:47;18.42;;;5.22;;
5555;SDS011;2801;50.972;7.856;2022-10-18T07:41:14;19.23;;;5.38;;
5555;SDS011;2801;50.972;7.856;2022-10-18T07:43:42;16.10;;;4.50;;
5555;SDS011;2801;50.972;7.856;2022-10-18T07:46:12;19.65;;;5.32;;
5555;SDS011;2801;50.972;7.856;2022-10-18T07:48:40;19.80;;;5.50;;
5555;SDS011;2801;50.972;7.856;2022-10-18T07:51:08;17.20;;;5.85;;
5555;SDS011;2801;50.972;7.856;2022-10-18T07:53:35;18.83;;;6.45;;
5555;SDS011;2801;50.972;7.856;2022-10-18T07:56:03;20.80;;;6.82;;
5555;SDS011;2801;50.972;7.856;2022-10-18T07:58:34;21.50;;;7.00;;
5555;SDS011;2801;50.972;7.856;2022-10-18T08:01:05;28.60;;;7.85;;
5555;SDS011;2801;50.972;7.856;2022-10-18T08:03:34;27.67;;;7.90;;
5555;SDS011;2801;50.972;7.856;2022-10-18T08:06:02;25.33;;;7.97;;
5555;SDS011;2801;50.972;7.856;2022-10-18T08:08:31;25.42;;;7.75;;
5555;SDS011;2801;50.972;7.856;2022-10-18T08:11:04;33.22;;;8.18;;
5555;SDS011;2801;50.972;7.856;2022-10-18T08:13:34;25.15;;;7.97;;
5555;SDS011;2801;50.972;7.856;2022-10-18T08:16:03;18.05;;;7.88;;
5555;SDS011;2801;50.972;7.856;2022-10-18T08:18:36;27.35;;;8.23;;
5555;SDS011;2801;50.972;7.856;2022-10-18T08:21:04;21.67;;;7.40;;
5555;SDS011;2801;50.972;7.856;2022-10-18T08:23:35;24.20;;;7.55;;
5555;SDS011;2801;50.972;7.856;2022-10-18T08:26:03;20.67;;;7.75;;
5555;SDS011;2801;50.972;7.856;2022-10-18T08:28:37;21.88;;;6.93;;
5555;SDS011;2801;50.972;7.856;2022-10-18T08:31:05;19.38;;;6.97;;
5555;SDS011;2801;50.972;7.856;2022-10-18T08:33:35;25.25;;;7.38;;
5555;SDS011;2801;50.972;7.856;2022-10-18T08:36:05;25.23;;;7.15;;
5555;SDS011;2801;50.972;7.856;2022-10-18T08:38:36;21.98;;;6.88;;
5555;SDS011;2801;50.972;7.856;2022-10-18T08:44:25;22.27;;;6.80;;
5555;SDS011;2801;50.972;7.856;2022-10-18T08:47:10;21.75;;;7.18;;
5555;SDS011;2801;50.972;7.856;2022-10-18T08:49:44;23.30;;;7.43;;
5555;SDS011;2801;50.972;7.856;2022-10-18T08:57:49;25.23;;;9.10;;
5555;SDS011;2801;50.972;7.856;2022-10-18T09:00:20;25.83;;;8.70;;
5555;SDS011;2801;50.972;7.856;2022-10-18T09:05:48;23.50;;;8.40;;
5555;SDS011;2801;50.972;7.856;2022-10-18T09:17:36;21.15;;;7.45;;
5555;SDS011;2801;50.972;7.856;2022-10-18T09:20:28;14.05;;;7.10;;
5555;SDS011;2801;50.972;7.856;2022-10-18T09:23:20;24.13;;;8.35;;
5555;SDS011;2801;50.972;7.856;2022-10-18T09:26:09;22.92;;;8.02;;
5555;SDS011;2801;50.972;7.856;2022-10-18T09:28:51;19.27;;;7.95;;
5555;SDS011;2801;50.972;7.856;2022-10-18T09:31:46;21.48;;;7.82;;
5555;SDS011;2801;50.972;7.856;2022-10-18T09:34:43;21.90;;;7.80;;
5555;SDS011;2801;50.972;7.856;2022-10-18T09:37:17;18.52;;;8.15;;
5555;SDS011;2801;50.972;7.856;2022-10-18T09:39:47;20.17;;;8.70;;
5555;SDS011;2801;50.972;7.856;2022-10-18T09:42:17;20.38;;;8.40;;
5555;SDS011;2801;50.972;7.856;2022-10-18T09:45:05;18.00;;;7.68;;
5555;SDS011;2801;50.972;7.856;2022-10-18T09:47:56;19.15;;;8.13;;
5555;SDS011;2801;50.972;7.856;2022-10-18T09:53:17;15.98;;;7.85;;
5555;SDS011;2801;50.972;7.856;2022-10-18T09:56:21;16.83;;;8.77;;
5555;SDS011;2801;50.972;7.856;2022-10-18T09:58:55;20.02;;;9.20;;
5555;SDS011;2801;50.972;7.856;2022-10-18T10:01:26;17.25;;;9.05;;
5555;SDS011;2801;50.972;7.856;2022-10-18T10:03:56;16.83;;;8.95;;
5555;SDS011;2801;50.972;7.856;2022-10-18T10:06:25;18.95;;;9.35;;
5555;SDS011;2801;50.972;7.856;2022-10-18T10:08:58;16.52;;;9.10;;
5555;SDS011;2801;50.972;7.856;2022-10-18T10:16:49;15.10;;;8.60;;
5555;SDS011;2801;50.972;7.856;2022-10-18T10:19:33;16.50;;;9.40;;
5555;SDS011;2801;50.972;7.856;2022-10-18T10:22:25;14.40;;;9.25;;
5555;SDS011;2801;50.972;7.856;2022-10-18T10:25:00;16.25;;;9.52;;
5555;SDS011;2801;50.972;7.856;2022-10-18T10:27:31;17.23;;;10.55;;
5555;SDS011;2801;50.972;7.856;2022-10-18T10:30:27;16.95;;;9.70;;
5555;SDS011;2801;50.972;7.856;2022-10-18T10:32:58;17.77;;;9.80;;
5555;SDS011;2801;50.972;7.856;2022-10-18T10:35:35;15.27;;;8.90;;
5555;SDS011;2801;50.972;7.856;2022-10-18T10:38:24;16.08;;;9.73;;
5555;SDS011;2801;50.972;7.856;2022-10-18T10:40:54;19.35;;;11.25;;
5555;SDS011;2801;50.972;7.856;2022-10-18T10:43:26;14.15;;;8.98;;
5555;SDS011;2801;50.972;7.856;2022-10-18T10:48:49;19.13;;;9.73;;
5555;SDS011;2801;50.972;7.856;2022-10-18T10:51:44;13.75;;;8.55;;
5555;SDS011;2801;50.972;7.856;2022-10-18T10:54:42;12.70;;;8.02;;
5555;SDS011;2801;50.972;7.856;2022-10-18T10:57:19;14.35;;;7.72;;
5555;SDS011;2801;50.972;7.856;2022-10-18T10:59:53;11.25;;;6.45;;
5555;SDS011;2801;50.972;7.856;2022-10-18T11:04:54;7.85;;;4.45;;
5555;SDS011;2801;50.972;7.856;2022-10-18T11:07:41;6.50;;;4.30;;
5555;SDS011;2801;50.972;7.856;2022-10-18T11:10:15;7.88;;;4.28;;
5555;SDS011;2801;50.972;7.856;2022-10-18T11:15:59;10.60;;;4.35;;
5555;SDS011;2801;50.972;7.856;2022-10-18T11:18:38;7.30;;;5.00;;
5555;SDS011;2801;50.972;7.856;2022-10-18T11:21:13;7.28;;;5.07;;
5555;SDS011;2801;50.972;7.856;2022-10-18T11:23:47;6.88;;;4.82;;
5555;SDS011;2801;50.972;7.856;2022-10-18T11:32:19;7.10;;;3.90;;
5555;SDS011;2801;50.972;7.856;2022-10-18T11:38:39;6.13;;;3.97;;
5555;SDS011;2801;50.972;7.856;2022-10-18T11:41:31;5.63;;;4.15;;
5555;SDS011;2801;50.972;7.856;2022-10-18T11:45:10;5.70;;;3.38;;
5555;SDS011;2801;50.972;7.856;2022-10-18T11:47:43;5.68;;;4.00;;
5555;SDS011;2801;50.972;7.856;2022-10-18T11:50:28;5.97;;;3.72;;
5555;SDS011;2801;50.972;7.856;2022-10-18T11:59:27;9.40;;;5.35;;
5555;SDS011;2801;50.972;7.856;2022-10-18T12:02:27;5.13;;;3.70;;
5555;SDS011;2801;50.972;7.856;2022-10-18T12:05:02;4.50;;;3.25;;
5555;SDS011;2801;50.972;7.856;2022-10-18T12:08:10;5.45;;;3.20;;
5555;SDS011;2801;50.972;7.856;2022-10-18T12:10:49;4.70;;;3.47;;
5555;SDS011;2801;50.972;7.856;2022-10-18T12:16:08;7.18;;;4.28;;
5555;SDS011;2801;50.972;7.856;2022-10-18T12:18:44;6.10;;;4.30;;
5555;SDS011;2801;50.972;7.856;2022-10-18T12:21:24;6.68;;;4.47;;
5555;SDS011;2801;50.972;7.856;2022-10-18T13:15:00;8.95;;;6.18;;
5555;SDS011;2801;50.972;7.856;2022-10-18T13:17:59;10.32;;;6.22;;
5555;SDS011;2801;50.972;7.856;2022-10-18T13:20:48;10.52;;;6.00;;
5555;SDS011;2801;50.972;7.856;2022-10-18T13:47:09;9.02;;;5.95;;
5555;SDS011;2801;50.972;7.856;2022-10-18T13:50:09;13.90;;;6.72;;
5555;SDS011;2801;50.972;7.856;2022-10-18T14:02:12;10.00;;;5.45;;
5555;SDS011;2801;50.972;7.856;2022-10-18T14:08:10;9.05;;;5.55;;
5555;SDS011;2801;50.972;7.856;2022-10-18T14:11:07;9.60;;;6.00;;
5555;SDS011;2801;50.972;7.856;2022-10-18T14:14:04;10.43;;;5.88;;
5555;SDS011;2801;50.972;7.856;2022-10-18T14:23:41;10.68;;;5.57;;
5555;SDS011;2801;50.972;7.856;2022-10-18T14:26:14;11.32;;;6.15;;
5555;SDS011;2801;50.972;7.856;2022-10-18T14:29:00;9.68;;;5.70;;
5555;SDS011;2801;50.972;7.856;2022-10-18T14:31:32;13.68;;;7.35;;
5555;SDS011;2801;50.972;7.856;2022-10-18T14:34:00;12.25;;;7.28;;
5555;SDS011;2801;50.972;7.856;2022-10-18T14:36:40;14.40;;;7.63;;
5555;SDS011;2801;50.972;7.856;2022-10-18T14:39:18;17.50;;;8.65;;
5555;SDS011;2801;50.972;7.856;2022-10-18T14:41:50;16.58;;;8.90;;
5555;SDS011;2801;50.972;7.856;2022-10-18T14:44:26;17.63;;;9.88;;
5555;SDS011;2801;50.972;7.856;2022-10-18T14:47:00;14.93;;;9.23;;
5555;SDS011;2801;50.972;7.856;2022-10-18T14:49:48;19.02;;;10.07;;
5555;SDS011;2801;50.972;7.856;2022-10-18T14:52:20;20.92;;;10.32;;
5555;SDS011;2801;50.972;7.856;2022-10-18T14:54:58;23.70;;;10.95;;
5555;SDS011;2801;50.972;7.856;2022-10-18T14:57:28;18.80;;;10.45;;
5555;SDS011;2801;50.972;7.856;2022-10-18T15:00:03;20.60;;;11.60;;
5555;SDS011;2801;50.972;7.856;2022-10-18T15:02:36;22.38;;;11.88;;
5555;SDS011;2801;50.972;7.856;2022-10-18T15:05:06;23.55;;;12.10;;
5555;SDS011;2801;50.972;7.856;2022-10-18T15:07:47;23.17;;;12.25;;
5555;SDS011;2801;50.972;7.856;2022-10-18T15:10:21;26.10;;;12.45;;
5555;SDS011;2801;50.972;7.856;2022-10-18T15:12:56;23.27;;;12.88;;
5555;SDS011;2801;50.972;7.856;2022-10-18T15:15:35;22.83;;;12.30;;
5555;SDS011;2801;50.972;7.856;2022-10-18T15:18:03;24.95;;;11.68;;
5555;SDS011;2801;50.972;7.856;2022-10-18T15:20:33;24.63;;;13.27;;
5555;SDS011;2801;50.972;7.856;2022-10-18T15:23:19;24.73;;;12.63;;
5555;SDS011;2801;50.972;7.856;2022-10-18T15:25:58;24.60;;;12.90;;
5555;SDS011;2801;50.972;7.856;2022-10-18T15:28:35;24.02;;;12.98;;
5555;SDS011;2801;50.972;7.856;2022-10-18T15:31:22;24.13;;;12.55;;
5555;SDS011;2801;50.972;7.856;2022-10-18T15:33:54;26.67;;;13.13;;
5555;SDS011;2801;50.972;7.856;2022-10-18T15:36:52;28.77;;;13.27;;
5555;SDS011;2801;50.972;7.856;2022-10-18T15:39:27;27.40;;;14.52;;
5555;SDS011;2801;50.972;7.856;2022-10-18T15:41:59;27.83;;;14.30;;
5555;SDS011;2801;50.972;7.856;2022-10-18T15:44:48;23.20;;;12.43;;
5555;SDS011;2801;50.972;7.856;2022-10-18T15:47:19;29.52;;;13.43;;
5555;SDS011;2801;50.972;7.856;2022-10-18T15:49:49;27.42;;;12.95;;
5555;SDS011;2801;50.972;7.856;2022-10-18T15:58:10;22.73;;;12.27;;
5555;SDS011;2801;50.972;7.856;2022-10-18T16:00:41;27.55;;;13.63;;
5555;SDS011;2801;50.972;7.856;2022-10-18T16:03:10;24.50;;;12.52;;
5555;SDS011;2801;50.972;7.856;2022-10-18T16:05:38;27.65;;;13.27;;
5555;SDS011;2801;50.972;7.856;2022-10-18T16:08:14;27.27;;;14.52;;
5555;SDS011;2801;50.972;7.856;2022-10-18T16:10:51;24.75;;;13.13;;
5555;SDS011;2801;50.972;7.856;2022-10-18T16:13:18;24.30;;;12.10;;
5555;SDS011;2801;50.972;7.856;2022-10-18T16:15:45;29.10;;;11.98;;
5555;SDS011;2801;50.972;7.856;2022-10-18T16:18:12;22.15;;;11.93;;
5555;SDS011;2801;50.972;7.856;2022-10-18T16:20:43;23.48;;;11.50;;
5555;SDS011;2801;50.972;7.856;2022-10-18T16:23:17;25.23;;;11.43;;
5555;SDS011;2801;50.972;7.856;2022-10-18T16:25:53;23.40;;;12.23;;
5555;SDS011;2801;50.972;7.856;2022-10-18T16:28:23;26.77;;;12.38;;
5555;SDS011;2801;50.972;7.856;2022-10-18T16:30:55;29.65;;;12.32;;
5555;SDS011;2801;50.972;7.856;2022-10-18T16:33:25;25.20;;;12.18;;
5555;SDS011;2801;50.972;7.856;2022-10-18T16:35:52;24.83;;;12.45;;
5555;SDS011;2801;50.972;7.856;2022-10-18T16:38:24;24.23;;;12.93;;
5555;SDS011;2801;50.972;7.856;2022-10-18T16:41:03;23.98;;;12.13;;
5555;SDS011;2801;50.972;7.856;2022-10-18T16:43:33;27.13;;;12.25;;
5555;SDS011;2801;50.972;7.856;2022-10-18T16:46:01;26.77;;;11.00;;
5555;SDS011;2801;50.972;7.856;2022-10-18T16:48:29;23.77;;;12.55;;
5555;SDS011;2801;50.972;7.856;2022-10-18T16:50:56;25.33;;;11.20;;
5555;SDS011;2801;50.972;7.856;2022-10-18T16:53:24;28.30;;;12.07;;
5555;SDS011;2801;50.972;7.856;2022-10-18T16:55:52;22.02;;;11.40;;
5555;SDS011;2801;50.972;7.856;2022-10-18T16:58:26;30.60;;;12.15;;
5555;SDS011;2801;50.972;7.856;2022-10-18T17:00:55;27.02;;;12.02;;
5555;SDS011;2801;50.972;7.856;2022-10-18T17:03:23;26.60;;;11.32;;
5555;SDS011;2801;50.972;7.856;2022-10-18T17:05:51;26.63;;;10.82;;
5555;SDS011;2801;50.972;7.856;2022-10-18T17:08:20;31.50;;;10.43;;
5555;SDS011;2801;50.972;7.856;2022-10-18T17:10:51;29.58;;;11.48;;
5555;SDS011;2801;50.972;7.856;2022-10-18T17:13:21;23.48;;;11.30;;
5555;SDS011;2801;50.972;7.856;2022-10-18T17:15:50;29.98;;;12.07;;
5555;SDS011;2801;50.972;7.856;2022-10-18T17:18:19;32.03;;;11.98;;
5555;SDS011;2801;50.972;7.856;2022-10-18T17:20:51;31.15;;;12.30;;
5555;SDS011;2801;50.972;7.856;2022-10-18T17:23:18;27.60;;;12.23;;
5555;SDS011;2801;50.972;7.856;2022-10-18T17:25:45;31.05;;;12.30;;
5555;SDS011;2801;50.972;7.856;2022-10-18T17:28:32;32.20;;;11.68;;
5555;SDS011;2801;50.972;7.856;2022-10-18T17:30:59;28.55;;;11.93;;
5555;SDS011;2801;50.972;7.856;2022-10-18T17:33:25;28.48;;;11.98;;
5555;SDS011;2801;50.972;7.856;2022-10-18T17:35:52;31.48;;;10.68;;
5555;SDS011;2801;50.972;7.856;2022-10-18T17:38:19;28.65;;;11.85;;
5555;SDS011;2801;50.972;7.856;2022-10-18T17:40:46;38.28;;;12.30;;
5555;SDS011;2801;50.972;7.856;2022-10-18T17:43:12;36.80;;;12.32;;
5555;SDS011;2801;50.972;7.856;2022-10-18T17:45:46;30.15;;;12.65;;
5555;SDS011;2801;50.972;7.856;2022-10-18T17:48:16;37.58;;;15.00;;
5555;SDS011;2801;50.972;7.856;2022-10-18T17:50:42;35.25;;;14.38;;
5555;SDS011;2801;50.972;7.856;2022-10-18T17:53:10;36.00;;;14.70;;
5555;SDS011;2801;50.972;7.856;2022-10-18T17:55:38;32.72;;;12.45;;
5555;SDS011;2801;50.972;7.856;2022-10-18T17:58:05;28.92;;;12.02;;
5555;SDS011;2801;50.972;7.856;2022-10-18T18:00:32;37.10;;;14.50;;
5555;SDS011;2801;50.972;7.856;2022-10-18T18:02:59;35.70;;;13.05;;
5555;SDS011;2801;50.972;7.856;2022-10-18T18:05:30;36.90;;;13.57;;
5555;SDS011;2801;50.972;7.856;2022-10-18T18:07:59;45.53;;;14.23;;
5555;SDS011;2801;50.972;7.856;2022-10-18T18:10:31;37.92;;;14.50;;
5555;SDS011;2801;50.972;7.856;2022-10-18T18:12:59;39.35;;;14.93;;
5555;SDS011;2801;50.972;7.856;2022-10-18T18:15:26;37.63;;;14.02;;
5555;SDS011;2801;50.972;7.856;2022-10-18T18:17:53;141.23;;;16.92;;
5555;SDS011;2801;50.972;7.856;2022-10-18T18:20:23;44.08;;;15.10;;
5555;SDS011;2801;50.972;7.856;2022-10-18T18:22:51;252.88;;;20.35;;
5555;SDS011;2801;50.972;7.856;2022-10-18T18:25:18;283.30;;;20.05;;
5555;SDS011;2801;50.972;7.856;2022-10-18T18:27:45;37.22;;;13.05;;
5555;SDS011;2801;50.972;7.856;2022-10-18T18:30:11;33.90;;;12.77;;